FW7230 Weather Reports


Display with metric or nautical units.
time (UTC)temp
F
wind
direction
speed
MPH
gust
MPH
rain 1hr
in
rain 24hr
in
rain mn
in
humidity
%
barometer
mb
20200716014311 75 55 0.0 0.0 0.00 3.51 3.51 86 1016.1
20200716013320 75 43 0.0 0.0 0.00 3.51 3.51 85 1016.0
20200716012317 75 43 0.0 0.0 0.00 3.51 3.51 84 1015.9
20200716011329 76 20 0.0 0.0 0.00 3.51 3.51 83 1015.9
20200716010326 77 1 0.0 0.0 0.00 3.51 3.51 81 1015.9
20200716005322 79 288 0.0 0.0 0.00 3.51 3.51 78 1015.9
20200716004318 80 286 0.0 0.0 0.00 3.51 3.51 75 1015.8
20200716003335 80 65 0.0 0.0 0.00 3.51 3.51 78 1015.6
20200716002322 78 333 0.0 0.0 0.00 3.51 3.51 81 1015.6
20200716001310 78 315 0.0 0.0 0.00 3.51 3.51 81 1015.4
20200716000324 78 283 0.0 0.0 0.00 3.51 3.51 81 1015.6
20200715235311 79 316 0.0 1.0 0.00 3.51 3.51 78 1015.6
20200715234310 80 256 0.0 1.0 0.00 3.51 3.51 79 1015.6
20200715233327 80 70 0.0 4.0 0.00 3.51 3.51 76 1015.6
20200715232319 81 331 0.0 1.0 0.00 3.51 3.51 78 1015.6
20200715231336 81 224 0.0 1.0 0.00 3.51 3.51 77 1015.5
20200715230327 80 323 0.0 5.0 0.00 3.51 3.51 79 1015.4
20200715225320 81 352 2.0 10.0 0.00 3.51 3.51 76 1015.4
20200715224311 81 307 0.0 0.0 0.00 3.51 3.51 76 1015.5
20200715223311 82 350 0.0 7.0 0.00 3.51 3.51 76 1015.5
20200715222317 83 41 0.0 3.0 0.00 3.51 3.51 76 1015.2
20200715221327 82 281 1.0 4.0 0.00 3.51 3.51 77 1015.1
20200715220322 81 109 0.0 1.0 0.00 3.51 3.51 77 1015.3
20200715215328 81 250 0.0 3.0 0.00 3.51 3.51 79 1015.1
20200715214327 80 1 3.0 6.0 0.00 3.51 3.51 78 1015.0
20200715213317 80 274 2.0 9.0 0.00 3.51 3.51 77 1015.0
20200715212316 82 18 3.0 7.0 0.00 3.51 3.51 74 1015.0
20200715211326 82 347 0.0 7.0 0.00 3.51 3.51 77 1015.0
20200715210320 81 219 1.0 4.0 0.00 3.51 3.51 78 1015.0
20200715205327 81 345 1.0 5.0 0.00 3.51 3.51 80 1015.1
20200715204321 80 32 1.0 12.0 0.00 3.51 3.51 82 1015.2
20200715203310 80 353 1.0 5.0 0.00 3.51 3.51 83 1015.2
20200715202326 80 333 0.0 4.0 0.00 3.51 3.51 85 1015.4
20200715201312 79 40 3.0 7.0 0.00 3.51 3.51 86 1015.6
20200715200327 79 135 0.0 7.0 0.00 3.51 3.51 87 1015.8
20200715195323 78 294 0.0 8.0 0.00 3.51 3.51 92 1016.0
20200715194312 78 85 0.0 3.0 0.00 3.51 3.51 95 1016.1
20200715193328 77 316 0.0 3.0 0.00 3.51 3.51 99 1016.2
20200715192318 75 255 1.0 7.0 0.00 3.51 3.51 99 1016.4
20200715191326 75 285 1.0 6.0 0.00 3.51 3.51 100 1016.5
20200715190317 73 354 2.0 9.0 0.00 3.51 3.51 100 1016.4
20200715185314 72 55 6.0 10.0 0.00 3.51 3.51 100 1016.2
20200715184329 72 16 5.0 9.0 0.00 3.51 3.51 100 1016.3
20200715183320 72 359 4.0 8.0 0.00 3.51 3.51 99 1016.4
20200715182337 73 283 1.0 7.0 0.00 3.51 3.51 100 1016.3
20200715181326 74 13 2.0 8.0 0.00 3.51 3.51 100 1016.3
20200715180322 74 51 0.0 2.0 0.00 3.51 3.51 100 1016.4
20200715175311 74 295 0.0 1.0 0.00 3.51 3.51 100 1016.4
20200715174327 74 320 0.0 2.0 0.00 3.51 3.51 100 1016.3
20200715173315 73 110 0.0 3.0 0.00 3.51 3.51 100 1016.2
20200715172334 72 262 0.0 3.0 0.00 3.51 3.51 100 1016.1
20200715171324 71 200 0.0 1.0 0.00 3.51 3.51 100 1015.8
20200715170324 70 285 1.0 3.0 0.00 3.51 3.51 100 1015.3
20200715165331 70 263 0.0 5.0 0.01 3.51 3.51 100 1014.8
20200715164327 70 221 2.0 8.0 0.01 3.51 3.51 100 1014.2
20200715163318 70 160 3.0 6.0 0.01 3.51 3.51 100 1013.5
20200715162313 69 109 5.0 9.0 0.01 3.51 3.51 100 1012.9
20200715161322 69 172 3.0 6.0 0.02 3.51 3.51 100 1013.2
20200715160319 69 197 2.0 5.0 0.05 3.51 3.51 100 1013.1
20200715155312 69 131 0.0 3.0 0.08 3.50 3.50 100 1013.7
20200715154328 69 122 1.0 4.0 0.13 3.50 3.50 100 1013.7
20200715153319 69 105 1.0 3.0 0.17 3.50 3.50 100 1013.8
20200715152315 69 39 0.0 1.0 0.20 3.50 3.50 100 1014.6
20200715151333 68 23 0.0 0.0 0.21 3.49 3.49 100 1014.9
20200715150318 68 25 0.0 0.0 0.21 3.46 3.46 100 1014.9
20200715145332 68 24 0.0 3.0 0.21 3.42 3.42 100 1014.9
20200715144320 68 79 0.0 3.0 0.19 3.37 3.37 100 1014.9
20200715143314 68 50 2.0 5.0 0.17 3.33 3.33 100 1014.6
20200715142322 68 356 3.0 8.0 0.17 3.30 3.30 100 1014.1
20200715141319 67 33 5.0 9.0 0.17 3.28 3.28 100 1013.8
20200715140329 67 12 6.0 10.0 0.17 3.25 3.25 100 1013.8
20200715135325 67 357 4.0 9.0 0.18 3.21 3.21 100 1013.9
20200715134314 67 27 4.0 9.0 0.19 3.18 3.18 100 1013.8
20200715133315 67 26 7.0 10.0 0.21 3.16 3.16 100 1013.8
20200715132323 67 33 6.0 9.0 0.21 3.13 3.13 100 1013.9
20200715131322 67 28 3.0 9.0 0.22 3.11 3.11 100 1014.3
20200715130336 67 38 6.0 12.0 0.21 3.08 3.08 100 1014.7
20200715125316 67 27 5.0 10.0 0.19 3.03 3.03 100 1015.1
20200715124335 67 26 5.0 6.0 0.19 2.99 2.99 100 1015.9
20200715123324 67 1 1.0 3.0 0.20 2.95 2.95 100 1016.5
20200715122323 67 16 0.0 3.0 0.20 2.92 2.92 100 1016.2
20200715121311 67 290 0.0 6.0 0.17 2.89 2.89 100 1015.9
20200715120327 67 269 5.0 9.0 0.16 2.87 2.87 100 1016.2
20200715115312 67 212 4.0 9.0 0.14 2.84 2.84 100 1015.0
20200715114328 67 172 2.0 4.0 0.11 2.80 2.80 100 1015.0
20200715113316 67 200 0.0 5.0 0.07 2.75 2.75 100 1014.9
20200715112321 67 143 1.0 7.0 0.05 2.72 2.72 100 1014.4
20200715111315 67 71 3.0 10.0 0.05 2.72 2.72 100 1013.7
20200715110324 67 104 3.0 12.0 0.04 2.71 2.71 100 1012.8
20200715105322 67 108 6.0 10.0 0.03 2.70 2.70 100 1012.3
20200715104316 67 79 3.0 5.0 0.03 2.69 2.69 100 1011.7
20200715103333 68 44 3.0 7.0 0.02 2.68 2.68 100 1013.0
20200715102322 68 89 1.0 5.0 0.02 2.67 2.67 100 1013.1
20200715101318 68 70 3.0 8.0 0.02 2.67 2.67 100 1013.0
20200715100326 68 142 2.0 6.0 0.03 2.67 2.67 100 1012.8
20200715095318 68 83 2.0 4.0 0.06 2.67 2.67 100 1013.0
20200715094332 69 94 2.0 4.0 0.06 2.66 2.66 100 1013.2
20200715093318 69 30 2.0 5.0 0.07 2.66 2.66 100 1012.9
20200715092329 69 13 1.0 4.0 0.08 2.65 2.65 100 1012.9
20200715091331 69 105 0.0 8.0 0.10 2.65 2.65 100 1012.1
20200715090325 70 113 4.0 7.0 0.13 2.64 2.64 100 1012.5
20200715085319 70 32 3.0 5.0 0.17 2.61 2.61 100 1012.9
20200715084333 70 41 2.0 3.0 0.17 2.60 2.60 100 1013.2
20200715083324 70 33 0.0 0.0 0.16 2.59 2.59 100 1013.1
20200715082318 70 41 0.0 3.0 0.24 2.57 2.57 100 1012.5
20200715081327 70 330 0.0 7.0 0.25 2.55 2.55 100 1012.8
20200715080325 70 207 3.0 5.0 0.22 2.51 2.51 100 1012.7
20200715075312 70 67 2.0 7.0 0.21 2.44 2.44 100 1012.2
20200715074328 70 34 3.0 5.0 0.23 2.43 2.43 100 1012.8
20200715073318 70 146 0.0 5.0 0.34 2.43 2.43 100 1012.8
20200715072315 70 51 3.0 8.0 0.31 2.32 2.32 100 1012.6
20200715071325 70 27 6.0 9.0 0.29 2.30 2.30 100 1012.4
20200715070319 70 41 6.0 16.0 0.31 2.29 2.29 100 1013.2
20200715065324 71 36 9.0 13.0 0.61 2.23 2.23 100 1011.9
20200715064313 70 23 6.0 9.0 1.07 2.20 2.20 100 1012.3
20200715063329 69 15 4.0 6.0 1.67 2.09 2.09 100 1012.4
20200715062319 69 284 2.0 6.0 2.01 2.01 2.01 99 1012.2
20200715061314 70 98 0.0 2.0 2.01 2.01 2.01 99 1012.8
20200715060322 70 285 1.0 10.0 1.98 1.98 1.98 98 1012.6
20200715055313 72 70 9.0 13.0 1.60 1.60 1.60 96 1013.1
20200715054325 74 278 4.0 11.0 1.11 1.11 1.11 93 1012.9
20200715053311 78 221 4.0 11.0 0.37 0.37 0.37 87 1013.2
20200715052325 80 172 0.0 0.0 0.00 0.00 0.00 92 1012.4
20200715051317 80 339 0.0 0.0 0.00 0.00 0.00 92 1012.5
20200715050311 80 31 0.0 0.0 0.00 0.00 0.00 91 1012.7
20200715045317 80 70 0.0 0.0 0.00 0.00 0.00 91 1013.0
20200715044313 80 57 0.0 0.0 0.00 0.00 0.00 91 1012.7
20200715043337 80 41 0.0 0.0 0.00 0.00 0.00 91 1012.4
20200715042325 80 41 0.0 0.0 0.00 0.00 0.00 91 1012.4
20200715041314 80 47 0.0 0.0 0.00 0.00 0.00 91 1012.5
20200715040312 80 55 0.0 0.0 0.00 0.00 0.00 90 1012.5
20200715035311 80 37 0.0 0.0 0.00 0.00 0.00 90 1012.7
20200715034324 80 226 0.0 0.0 0.00 0.00 0.00 89 1012.9
20200715033321 80 226 0.0 0.0 0.00 0.00 0.00 88 1012.8
20200715032311 81 226 0.0 0.0 0.00 0.00 0.00 88 1012.5
20200715031331 81 226 0.0 0.0 0.00 0.00 0.00 87 1011.9
20200715030319 81 226 0.0 0.0 0.00 0.00 0.00 87 1011.7
20200715025313 81 203 0.0 0.0 0.00 0.00 0.00 88 1011.7
20200715024328 81 208 0.0 0.0 0.00 0.00 0.00 88 1012.0
20200715023324 81 214 0.0 0.0 0.00 0.00 0.00 88 1012.2
20200715022315 81 149 0.0 0.0 0.00 0.00 0.00 87 1012.4
20200715021311 82 149 0.0 0.0 0.00 0.00 0.00 86 1012.5
20200715020319 82 149 0.0 0.0 0.00 0.00 0.00 84 1012.6
20200715015321 83 174 0.0 0.0 0.00 0.00 0.00 83 1012.4